createdAt,value
2018-12-27T00:01:14.141Z,35.69
2018-12-27T00:03:44.088Z,35.32
2018-12-27T00:06:13.098Z,35.25
2018-12-27T00:08:42.501Z,35.92
2018-12-27T00:11:11.485Z,35.71
2018-12-27T00:13:40.467Z,37.40
2018-12-27T00:16:09.784Z,36.30
2018-12-27T00:18:38.745Z,36.09
2018-12-27T00:21:08.243Z,36.13
2018-12-27T00:23:37.502Z,36.65
2018-12-27T00:26:07.295Z,36.01
2018-12-27T00:28:36.987Z,35.75
2018-12-27T00:31:06.425Z,35.53
2018-12-27T00:33:36.428Z,36.12
2018-12-27T00:36:06.201Z,35.91
2018-12-27T00:38:35.812Z,36.68
2018-12-27T00:41:05.198Z,35.93
2018-12-27T00:43:34.922Z,33.83
2018-12-27T00:46:04.732Z,33.62
2018-12-27T00:48:35.385Z,33.54
2018-12-27T00:51:05.769Z,32.88
2018-12-27T00:53:35.479Z,32.58
2018-12-27T00:56:05.175Z,32.28
2018-12-27T00:58:35.037Z,32.47
2018-12-27T01:01:05.002Z,32.28
2018-12-27T01:03:34.760Z,32.10
2018-12-27T01:06:04.259Z,32.53
2018-12-27T01:08:34.189Z,32.77
2018-12-27T01:11:03.428Z,33.37
2018-12-27T01:13:32.915Z,32.88
2018-12-27T01:16:02.526Z,32.09
2018-12-27T01:18:31.770Z,32.33
2018-12-27T01:21:02.751Z,32.80
2018-12-27T01:23:32.089Z,33.35
2018-12-27T01:26:01.755Z,34.32
2018-12-27T01:28:31.635Z,34.04
2018-12-27T01:31:01.150Z,32.87
2018-12-27T01:33:30.673Z,34.18
2018-12-27T01:36:00.235Z,33.83
2018-12-27T01:38:29.620Z,34.86
2018-12-27T01:40:59.134Z,33.80
2018-12-27T01:43:29.177Z,35.36
2018-12-27T01:45:59.365Z,34.84
2018-12-27T01:48:29.310Z,33.96
2018-12-27T01:50:58.844Z,32.64
2018-12-27T01:53:28.417Z,33.32
2018-12-27T01:55:58.260Z,33.50
2018-12-27T01:58:29.089Z,33.01
2018-12-27T02:00:59.109Z,33.61
2018-12-27T02:03:28.665Z,33.32
2018-12-27T02:05:58.210Z,32.61
2018-12-27T02:08:27.726Z,33.25
2018-12-27T02:10:57.421Z,32.58
2018-12-27T02:13:27.502Z,32.37
2018-12-27T02:15:57.277Z,32.39
2018-12-27T02:18:26.678Z,31.96
2018-12-27T02:20:55.967Z,32.18
2018-12-27T02:23:25.276Z,32.35
2018-12-27T02:25:55.078Z,32.26
2018-12-27T02:28:24.636Z,32.64
2018-12-27T02:30:54.009Z,34.44
2018-12-27T02:33:23.902Z,34.45
2018-12-27T02:35:53.597Z,32.49
2018-12-27T02:38:22.736Z,32.21
2018-12-27T02:40:51.904Z,32.13
2018-12-27T02:43:21.400Z,33.08
2018-12-27T02:45:50.638Z,33.18
2018-12-27T02:48:20.108Z,33.54
2018-12-27T02:50:49.861Z,33.46
2018-12-27T02:53:19.118Z,32.99
2018-12-27T02:55:48.550Z,33.22
2018-12-27T02:58:17.849Z,33.35
2018-12-27T03:00:48.366Z,32.49
2018-12-27T03:03:17.839Z,32.48
2018-12-27T03:05:46.996Z,32.60
2018-12-27T03:08:16.191Z,31.65
2018-12-27T03:10:45.799Z,31.94
2018-12-27T03:13:15.371Z,32.05
2018-12-27T03:15:45.004Z,32.29
2018-12-27T03:18:14.234Z,32.97
2018-12-27T03:20:44.490Z,32.31
2018-12-27T03:23:13.705Z,32.14
2018-12-27T03:25:43.265Z,31.69
2018-12-27T03:28:12.389Z,32.14
2018-12-27T03:30:41.879Z,31.88
2018-12-27T03:33:10.994Z,31.99
2018-12-27T03:35:40.406Z,33.75
2018-12-27T03:38:09.580Z,34.51
2018-12-27T03:40:38.830Z,35.08
2018-12-27T03:43:08.030Z,34.98
2018-12-27T03:45:37.166Z,35.00
2018-12-27T03:48:07.428Z,34.93
2018-12-27T03:50:36.754Z,35.09
2018-12-27T03:53:06.666Z,34.82
2018-12-27T03:55:35.947Z,34.46
2018-12-27T03:58:05.435Z,34.25
2018-12-27T04:00:34.903Z,35.14
2018-12-27T04:03:04.824Z,35.08
2018-12-27T04:05:34.169Z,34.61
2018-12-27T04:08:04.255Z,34.66
2018-12-27T04:10:33.496Z,34.90
2018-12-27T04:13:07.432Z,35.15
2018-12-27T04:15:36.433Z,35.38
2018-12-27T04:18:06.611Z,34.90
2018-12-27T04:20:35.820Z,34.94
2018-12-27T04:23:05.639Z,35.55
2018-12-27T04:25:35.080Z,35.54
2018-12-27T04:28:04.290Z,35.88
2018-12-27T04:30:33.757Z,36.01
2018-12-27T04:33:04.261Z,36.08
2018-12-27T04:35:33.754Z,36.44
2018-12-27T04:38:03.135Z,36.33
2018-12-27T04:40:32.144Z,35.83
2018-12-27T04:43:03.178Z,35.83
2018-12-27T04:45:32.100Z,35.34
2018-12-27T04:48:01.338Z,35.39
2018-12-27T04:50:31.080Z,34.76
2018-12-27T04:53:00.419Z,34.73
2018-12-27T04:55:29.396Z,35.75
2018-12-27T04:57:58.573Z,35.75
2018-12-27T05:00:27.923Z,35.20
2018-12-27T05:02:56.923Z,34.88
2018-12-27T05:05:25.893Z,34.97
2018-12-27T05:07:55.189Z,34.70
2018-12-27T05:10:24.236Z,34.56
2018-12-27T05:12:53.286Z,34.10
2018-12-27T05:15:22.331Z,34.60
2018-12-27T05:17:51.662Z,34.58
2018-12-27T05:20:20.667Z,34.23
2018-12-27T05:22:49.792Z,34.29
2018-12-27T05:25:19.344Z,34.38
2018-12-27T05:27:48.650Z,34.59
2018-12-27T05:30:17.640Z,34.44
2018-12-27T05:32:46.834Z,34.08
2018-12-27T05:35:15.715Z,34.06
2018-12-27T05:37:44.733Z,34.48
2018-12-27T05:40:13.840Z,34.59
2018-12-27T05:42:43.183Z,34.60
2018-12-27T05:45:12.145Z,34.96
2018-12-27T05:47:42.431Z,35.04
2018-12-27T05:50:11.447Z,34.92
2018-12-27T05:52:40.763Z,34.54
2018-12-27T05:55:09.719Z,34.00
2018-12-27T05:57:38.750Z,34.88
2018-12-27T06:00:08.031Z,34.48
2018-12-27T06:02:37.039Z,34.31
2018-12-27T06:05:06.444Z,34.01
2018-12-27T06:07:35.696Z,34.33
2018-12-27T06:10:04.839Z,33.86
2018-12-27T06:12:34.166Z,33.86
2018-12-27T06:15:03.174Z,33.91
2018-12-27T06:17:32.814Z,33.61
2018-12-27T06:20:02.112Z,33.56
2018-12-27T06:22:31.650Z,33.58
2018-12-27T06:25:01.075Z,33.53
2018-12-27T06:27:30.577Z,33.38
2018-12-27T06:29:59.657Z,33.94
2018-12-27T06:32:28.576Z,33.30
2018-12-27T06:34:57.514Z,33.54
2018-12-27T06:37:26.837Z,33.54
2018-12-27T06:39:55.834Z,33.67
2018-12-27T06:42:25.117Z,33.75
2018-12-27T06:44:54.187Z,33.87
2018-12-27T06:47:23.561Z,33.68
2018-12-27T06:49:53.200Z,33.46
2018-12-27T06:52:22.339Z,33.62
2018-12-27T06:54:51.335Z,33.43
2018-12-27T06:57:20.498Z,33.63
2018-12-27T06:59:49.529Z,34.38
2018-12-27T07:02:18.900Z,34.26
2018-12-27T07:04:49.082Z,35.91
2018-12-27T07:07:18.724Z,35.69
2018-12-27T07:09:48.047Z,34.87
2018-12-27T07:12:17.527Z,34.14
2018-12-27T07:14:46.860Z,34.52
2018-12-27T07:17:16.250Z,34.15
2018-12-27T07:19:45.535Z,34.19
2018-12-27T07:22:14.892Z,34.65
2018-12-27T07:24:44.546Z,35.48
2018-12-27T07:27:13.707Z,35.18
2018-12-27T07:29:43.123Z,34.71
2018-12-27T07:32:12.350Z,34.35
2018-12-27T07:34:41.760Z,34.53
2018-12-27T07:37:11.244Z,34.17
2018-12-27T07:39:40.277Z,33.46
2018-12-27T07:42:09.221Z,33.64
2018-12-27T07:44:38.886Z,34.10
2018-12-27T07:47:08.381Z,34.06
2018-12-27T07:49:37.424Z,33.99
2018-12-27T07:52:06.381Z,33.62
2018-12-27T07:54:35.351Z,33.19
2018-12-27T07:57:04.426Z,33.01
2018-12-27T07:59:34.091Z,34.00
2018-12-27T08:02:03.432Z,35.46
2018-12-27T08:04:32.335Z,34.12
2018-12-27T08:07:01.272Z,33.48
2018-12-27T08:09:30.581Z,33.20
2018-12-27T08:11:59.898Z,33.24
2018-12-27T08:14:28.946Z,33.91
2018-12-27T08:16:58.323Z,33.93
2018-12-27T08:19:27.465Z,33.09
2018-12-27T08:21:56.754Z,33.51
2018-12-27T08:24:25.817Z,32.21
2018-12-27T08:26:55.569Z,32.07
2018-12-27T08:29:24.816Z,31.31
2018-12-27T08:31:53.835Z,30.72
2018-12-27T08:34:22.905Z,31.35
2018-12-27T08:36:52.247Z,31.35
2018-12-27T08:39:21.157Z,30.70
2018-12-27T08:41:50.811Z,32.09
2018-12-27T08:44:19.970Z,31.01
2018-12-27T08:46:49.612Z,31.66
2018-12-27T08:49:18.648Z,30.70
2018-12-27T08:51:47.610Z,30.57
2018-12-27T08:54:16.610Z,32.05
2018-12-27T08:56:45.913Z,32.08
2018-12-27T08:59:14.907Z,31.17
2018-12-27T09:01:45.036Z,31.43
2018-12-27T09:04:14.389Z,31.06
2018-12-27T09:06:43.359Z,30.96
2018-12-27T09:09:13.105Z,30.52
2018-12-27T09:11:42.065Z,30.53
2018-12-27T09:17:40.246Z,30.71
2018-12-27T09:23:51.134Z,30.15
2018-12-27T09:30:02.549Z,29.37
2018-12-27T09:32:31.448Z,30.36
2018-12-27T09:35:00.590Z,29.69
2018-12-27T09:37:30.549Z,30.22
2018-12-27T09:39:59.914Z,30.04
2018-12-27T09:42:29.217Z,29.38
2018-12-27T09:49:18.549Z,29.46
2018-12-27T09:57:04.752Z,28.35
2018-12-27T09:59:33.770Z,28.00
2018-12-27T10:02:02.874Z,28.33
2018-12-27T10:05:33.837Z,28.13
2018-12-27T10:07:59.682Z,27.69
2018-12-27T10:10:28.707Z,28.17
2018-12-27T10:12:57.865Z,27.48
2018-12-27T10:15:27.475Z,27.46
2018-12-27T10:17:56.772Z,27.79
2018-12-27T10:20:26.797Z,27.36
2018-12-27T10:22:55.785Z,27.88
2018-12-27T10:25:25.094Z,27.24
2018-12-27T10:27:55.036Z,26.64
2018-12-27T10:30:25.022Z,27.08
2018-12-27T10:32:55.108Z,27.17
2018-12-27T10:35:24.549Z,27.03
2018-12-27T10:37:53.961Z,27.81
2018-12-27T10:40:24.522Z,27.55
2018-12-27T10:42:53.769Z,28.14
2018-12-27T10:45:23.069Z,27.07
2018-12-27T10:47:52.389Z,26.98
2018-12-27T10:50:22.202Z,26.80
2018-12-27T10:52:51.493Z,26.52
2018-12-27T10:55:21.123Z,26.11
2018-12-27T10:57:50.928Z,26.09
2018-12-27T11:00:19.887Z,26.95
2018-12-27T11:02:49.131Z,26.79
2018-12-27T11:05:18.309Z,27.78
2018-12-27T11:07:47.592Z,27.08
2018-12-27T11:10:16.596Z,26.26
2018-12-27T11:12:45.745Z,26.56
2018-12-27T11:15:15.519Z,25.73
2018-12-27T11:17:45.515Z,25.97
2018-12-27T11:20:14.913Z,25.50
2018-12-27T11:22:44.453Z,25.60
2018-12-27T11:25:14.142Z,25.97
2018-12-27T11:27:43.365Z,25.52
2018-12-27T11:30:12.742Z,25.59
2018-12-27T11:32:42.078Z,25.20
2018-12-27T11:35:11.623Z,25.52
2018-12-27T11:37:40.594Z,24.81
2018-12-27T11:40:10.046Z,24.87
2018-12-27T11:42:39.666Z,24.82
2018-12-27T11:45:08.949Z,24.51
2018-12-27T11:47:38.357Z,24.43
2018-12-27T11:50:07.481Z,24.71
2018-12-27T11:52:36.755Z,24.36
2018-12-27T11:55:06.251Z,24.96
2018-12-27T11:57:35.856Z,25.54
2018-12-27T12:00:05.608Z,25.78
2018-12-27T12:02:34.621Z,26.18
2018-12-27T12:05:03.989Z,26.38
2018-12-27T12:07:33.256Z,26.53
2018-12-27T12:10:02.889Z,26.28
2018-12-27T12:12:32.124Z,26.16
2018-12-27T12:15:01.789Z,26.15
2018-12-27T12:17:30.758Z,26.31
2018-12-27T12:19:59.969Z,26.29
2018-12-27T12:22:28.965Z,25.60
2018-12-27T12:24:58.069Z,24.84
2018-12-27T12:27:27.661Z,25.04
2018-12-27T12:29:58.316Z,24.90
2018-12-27T12:32:28.351Z,24.94
2018-12-27T12:34:57.870Z,25.01
2018-12-27T12:37:28.695Z,25.67
2018-12-27T12:39:58.382Z,25.25
2018-12-27T12:42:32.791Z,25.17
2018-12-27T12:44:58.828Z,24.76
2018-12-27T12:47:28.010Z,24.09
2018-12-27T12:49:57.616Z,24.13
2018-12-27T12:52:27.231Z,22.74
2018-12-27T12:54:56.505Z,20.90
2018-12-27T12:57:25.612Z,19.57
2018-12-27T12:59:54.998Z,19.36
2018-12-27T13:02:24.872Z,19.88
2018-12-27T13:04:54.239Z,20.34
2018-12-27T13:07:23.661Z,20.16
2018-12-27T13:09:52.997Z,19.38
2018-12-27T13:12:22.345Z,18.15
2018-12-27T13:14:51.637Z,17.18
2018-12-27T13:17:21.254Z,16.87
2018-12-27T13:19:50.785Z,16.87
2018-12-27T13:22:20.274Z,16.96
2018-12-27T13:24:49.248Z,17.96
2018-12-27T13:27:18.295Z,18.42
2018-12-27T13:29:48.169Z,18.85
2018-12-27T13:32:17.987Z,18.75
2018-12-27T13:34:47.370Z,19.60
2018-12-27T13:37:17.083Z,20.79
2018-12-27T13:39:46.176Z,21.29
2018-12-27T13:42:15.516Z,22.04
2018-12-27T13:44:44.896Z,22.27
2018-12-27T13:47:13.864Z,22.53
2018-12-27T13:49:42.831Z,23.06
2018-12-27T13:52:12.023Z,23.08
2018-12-27T13:54:42.066Z,23.30
2018-12-27T13:57:14.597Z,23.95
2018-12-27T13:59:44.001Z,23.84
2018-12-27T14:02:13.129Z,24.33
2018-12-27T14:04:43.007Z,24.35
2018-12-27T14:07:12.422Z,24.50
2018-12-27T14:09:41.796Z,24.45
2018-12-27T14:12:11.294Z,25.08
2018-12-27T14:14:40.734Z,24.93
2018-12-27T14:17:10.343Z,24.83
2018-12-27T14:19:40.289Z,25.81
2018-12-27T14:22:09.482Z,26.34
2018-12-27T14:24:39.330Z,25.84
2018-12-27T14:27:09.016Z,26.04
2018-12-27T14:29:39.285Z,26.55
2018-12-27T14:32:09.092Z,26.13
2018-12-27T14:34:38.715Z,26.57
2018-12-27T14:37:08.166Z,26.91
2018-12-27T14:39:37.665Z,27.22
2018-12-27T14:42:07.443Z,27.57
2018-12-27T14:44:36.872Z,27.91
2018-12-27T14:47:06.537Z,28.06
2018-12-27T14:49:35.933Z,27.93
2018-12-27T14:52:05.349Z,28.00
2018-12-27T14:54:34.516Z,28.43
2018-12-27T14:57:03.820Z,28.41
2018-12-27T14:59:33.111Z,28.47
2018-12-27T15:02:02.059Z,28.59
2018-12-27T15:04:31.527Z,29.92
2018-12-27T15:07:00.544Z,30.04
2018-12-27T15:09:29.745Z,30.75
2018-12-27T15:11:59.107Z,29.74
2018-12-27T15:14:28.432Z,29.38
2018-12-27T15:16:57.571Z,29.89
2018-12-27T15:19:26.720Z,29.63
2018-12-27T15:21:55.807Z,29.68
2018-12-27T15:24:25.890Z,29.85
2018-12-27T15:26:55.429Z,29.86
2018-12-27T15:29:25.082Z,29.75
2018-12-27T15:31:54.540Z,30.69
2018-12-27T15:34:23.888Z,31.67
2018-12-27T15:36:54.491Z,31.56
2018-12-27T15:39:24.078Z,31.79
2018-12-27T15:41:53.713Z,31.56
2018-12-27T15:44:23.366Z,31.85
2018-12-27T15:46:52.430Z,32.04
2018-12-27T15:49:21.690Z,32.22
2018-12-27T15:51:50.698Z,33.06
2018-12-27T15:54:20.668Z,33.84
2018-12-27T15:56:49.772Z,34.51
2018-12-27T15:59:18.938Z,33.91
2018-12-27T16:01:48.671Z,34.41
2018-12-27T16:04:18.109Z,34.60
2018-12-27T16:06:47.404Z,34.31
2018-12-27T16:09:16.693Z,34.58
2018-12-27T16:11:45.901Z,35.76
2018-12-27T16:14:15.219Z,35.19
2018-12-27T16:16:44.130Z,35.54
2018-12-27T16:19:13.319Z,35.86
2018-12-27T16:21:42.609Z,35.54
2018-12-27T16:24:11.897Z,36.99
2018-12-27T16:26:41.608Z,38.10
2018-12-27T16:29:10.883Z,37.08
2018-12-27T16:31:40.861Z,36.79
2018-12-27T16:34:10.527Z,38.75
2018-12-27T16:36:39.750Z,37.66
2018-12-27T16:39:08.916Z,36.53
2018-12-27T16:41:38.224Z,37.74
2018-12-27T16:44:07.259Z,34.57
2018-12-27T16:46:36.923Z,33.75
2018-12-27T16:49:06.238Z,33.98
2018-12-27T16:51:35.838Z,33.73
2018-12-27T16:54:04.873Z,34.05
2018-12-27T16:56:33.878Z,33.98
2018-12-27T16:59:03.139Z,34.10
2018-12-27T17:01:32.429Z,33.71
2018-12-27T17:04:01.730Z,33.80
2018-12-27T17:06:31.162Z,33.57
2018-12-27T17:09:00.742Z,33.59
2018-12-27T17:11:29.942Z,33.64
2018-12-27T17:13:59.241Z,33.48
2018-12-27T17:16:29.063Z,33.37
2018-12-27T17:18:58.380Z,33.40
2018-12-27T17:21:27.677Z,33.69
2018-12-27T17:23:56.948Z,33.91
2018-12-27T17:26:26.267Z,34.41
2018-12-27T17:28:55.616Z,33.70
2018-12-27T17:31:24.609Z,33.93
2018-12-27T17:33:53.864Z,33.79
2018-12-27T17:36:23.058Z,33.59
2018-12-27T17:38:52.366Z,34.05
2018-12-27T17:41:21.658Z,33.71
2018-12-27T17:43:50.945Z,33.56
2018-12-27T17:46:20.767Z,33.97
2018-12-27T17:48:50.221Z,34.09
2018-12-27T17:51:19.138Z,34.20
2018-12-27T17:53:48.394Z,34.30
2018-12-27T17:56:18.056Z,34.41
2018-12-27T17:58:47.895Z,35.12
2018-12-27T18:01:16.882Z,35.43
2018-12-27T18:03:46.059Z,35.01
2018-12-27T18:06:15.036Z,34.77
2018-12-27T18:08:44.029Z,34.52
2018-12-27T18:11:13.472Z,34.34
2018-12-27T18:13:42.750Z,34.35
2018-12-27T18:16:11.767Z,34.17
2018-12-27T18:18:41.076Z,34.12
2018-12-27T18:21:10.750Z,34.09
2018-12-27T18:23:39.805Z,33.89
2018-12-27T18:26:09.157Z,34.07
2018-12-27T18:28:39.027Z,34.04
2018-12-27T18:31:08.042Z,34.15
2018-12-27T18:33:37.037Z,34.01
2018-12-27T18:36:06.007Z,33.99
2018-12-27T18:38:35.345Z,34.08
2018-12-27T18:41:04.661Z,34.10
2018-12-27T18:43:33.972Z,34.81
2018-12-27T18:46:02.936Z,34.92
2018-12-27T18:48:32.231Z,34.89
2018-12-27T18:51:01.189Z,34.55
2018-12-27T18:53:30.411Z,34.56
2018-12-27T18:56:00.109Z,34.65
2018-12-27T18:58:28.995Z,34.72
2018-12-27T19:00:58.695Z,36.36
2018-12-27T19:03:28.045Z,35.34
2018-12-27T19:05:57.349Z,34.75
2018-12-27T19:08:26.389Z,34.46
2018-12-27T19:11:31.656Z,34.34
2018-12-27T19:14:00.873Z,34.83
2018-12-27T19:16:30.190Z,34.39
2018-12-27T19:19:00.316Z,34.37
2018-12-27T19:21:50.050Z,34.37
2018-12-27T19:24:19.360Z,34.22
2018-12-27T19:26:48.351Z,34.50
2018-12-27T19:29:17.432Z,34.67
2018-12-27T19:31:46.893Z,34.71
2018-12-27T19:34:16.033Z,34.35
2018-12-27T19:36:44.975Z,34.50
2018-12-27T19:39:14.567Z,34.62
2018-12-27T19:41:43.775Z,34.97
2018-12-27T19:44:13.062Z,41.81
2018-12-27T19:46:41.959Z,34.50
2018-12-27T19:49:10.978Z,34.20
2018-12-27T19:51:40.961Z,34.38
2018-12-27T19:54:10.795Z,34.32
2018-12-27T19:56:40.073Z,34.60
2018-12-27T19:59:09.401Z,34.31
2018-12-27T20:01:38.690Z,34.80
2018-12-27T20:04:07.876Z,34.57
2018-12-27T20:06:37.141Z,34.17
2018-12-27T20:09:07.824Z,34.09
2018-12-27T20:11:37.638Z,34.68
2018-12-27T20:14:07.165Z,34.66
2018-12-27T20:16:36.120Z,34.58
2018-12-27T20:19:05.741Z,34.25
2018-12-27T20:21:34.644Z,34.42
2018-12-27T20:24:04.239Z,34.30
2018-12-27T20:26:33.421Z,34.79
2018-12-27T20:29:03.060Z,34.70
2018-12-27T20:31:32.776Z,34.53
2018-12-27T20:34:02.973Z,34.71
2018-12-27T20:36:32.378Z,34.44
2018-12-27T20:39:01.407Z,34.40
2018-12-27T20:41:33.336Z,34.39
2018-12-27T20:44:03.042Z,34.67
2018-12-27T20:46:32.635Z,34.55
2018-12-27T20:49:02.415Z,34.61
2018-12-27T20:51:31.396Z,35.13
2018-12-27T20:54:00.490Z,34.44
2018-12-27T20:56:30.196Z,35.09
2018-12-27T20:58:59.598Z,34.88
2018-12-27T21:01:28.849Z,35.08
2018-12-27T21:03:58.174Z,34.73
2018-12-27T21:06:28.185Z,34.97
2018-12-27T21:08:57.690Z,34.83
2018-12-27T21:11:26.829Z,34.80
2018-12-27T21:13:56.285Z,34.67
2018-12-27T21:16:26.089Z,34.91
2018-12-27T21:18:55.487Z,34.72
2018-12-27T21:21:24.791Z,34.97
2018-12-27T21:23:54.157Z,37.11
2018-12-27T21:26:23.532Z,35.88
2018-12-27T21:28:52.701Z,35.29
2018-12-27T21:31:22.183Z,35.19
2018-12-27T21:33:51.507Z,35.26
2018-12-27T21:36:20.713Z,35.07
2018-12-27T21:38:50.302Z,35.11
2018-12-27T21:41:19.295Z,35.21
2018-12-27T21:43:48.510Z,35.29
2018-12-27T21:46:17.900Z,35.35
2018-12-27T21:48:47.478Z,35.69
2018-12-27T21:51:17.152Z,35.86
2018-12-27T21:53:46.548Z,36.25
2018-12-27T21:56:15.565Z,36.33
2018-12-27T21:58:45.568Z,36.10
2018-12-27T22:01:14.954Z,36.00
2018-12-27T22:03:44.535Z,36.19
2018-12-27T22:06:14.317Z,36.04
2018-12-27T22:08:43.962Z,37.11
2018-12-27T22:11:13.142Z,36.94
2018-12-27T22:13:43.083Z,37.39
2018-12-27T22:16:12.371Z,37.31
2018-12-27T22:18:41.809Z,36.96
2018-12-27T22:21:12.079Z,36.90
2018-12-27T22:23:41.692Z,37.21
2018-12-27T22:26:11.246Z,36.50
2018-12-27T22:28:41.026Z,37.32
2018-12-27T22:31:10.567Z,37.17
2018-12-27T22:33:40.348Z,36.90
2018-12-27T22:36:09.746Z,37.36
2018-12-27T22:38:39.171Z,37.49
2018-12-27T22:41:08.546Z,43.29
2018-12-27T22:43:37.660Z,40.21
2018-12-27T22:46:07.177Z,40.45
2018-12-27T22:48:36.177Z,38.76
2018-12-27T22:51:05.337Z,39.27
2018-12-27T22:53:36.794Z,39.23
2018-12-27T22:56:06.023Z,37.38
2018-12-27T22:58:35.204Z,37.63
2018-12-27T23:01:04.788Z,37.14
2018-12-27T23:03:34.112Z,37.55
2018-12-27T23:06:03.932Z,37.17
2018-12-27T23:08:34.077Z,36.93
2018-12-27T23:11:03.843Z,36.96
2018-12-27T23:13:33.690Z,37.24
2018-12-27T23:16:02.756Z,38.32
2018-12-27T23:18:32.157Z,37.58
2018-12-27T23:21:05.199Z,36.64
2018-12-27T23:23:37.423Z,36.73
2018-12-27T23:26:06.767Z,36.57
2018-12-27T23:28:36.609Z,36.32
2018-12-27T23:31:05.929Z,35.94
2018-12-27T23:33:35.221Z,35.97
2018-12-27T23:36:11.949Z,36.11
2018-12-27T23:38:50.193Z,36.29
2018-12-27T23:41:16.745Z,36.33
2018-12-27T23:43:50.813Z,35.94
2018-12-27T23:46:26.840Z,36.32
2018-12-27T23:48:58.696Z,36.35
2018-12-27T23:51:36.003Z,36.00
2018-12-27T23:54:05.380Z,35.90
2018-12-27T23:56:35.309Z,35.66
2018-12-27T23:59:04.684Z,35.62
